Aviation Digital Data Service (ADDS)

Output produced by METARs form (2207 UTC 28 May 2017)
found at http://aviationweather.gov/adds/metars/
 
KAEX 281720Z 2818/2918 14009KT P6SM VCSH BKN035 
     FM290200 19006KT P6SM VCTS BKN025CB